Time;durP1;ratioP1;P1;durP2;ratioP2;P2;SDS_P1;SDS_P2;PMS_P1;PMS_P2;Temp;Humidity;BMP_temperature;BMP_pressure;BME280_temperature;BME280_humidity;BME280_pressure;Samples;Min_cycle;Max_cycle;Signal;HPM_P1;HPM_P2
2022/08/05 00:01:21;;;;;;;4.45;1.73;;;;;;;13.85;54.15;100560.91;5008325;28;20050;-40
2022/08/05 00:03:54;;;;;;;2.50;1.00;;;;;;;13.81;53.75;100567.03;5005828;28;20041;-41
2022/08/05 00:06:23;;;;;;;3.42;0.95;;;;;;;13.79;54.36;100562.72;5001013;28;20046;-40
2022/08/05 00:08:59;;;;;;;4.32;1.42;;;;;;;13.76;54.15;100563.59;5004476;28;20136;-40
2022/08/05 00:11:26;;;;;;;1.98;1.45;;;;;;;13.74;55.15;100565.34;5009803;28;20049;-40
2022/08/05 00:14:01;;;;;;;5.53;1.05;;;;;;;13.72;55.04;100562.75;5009671;28;20081;-41
2022/08/05 00:16:38;;;;;;;3.75;1.40;;;;;;;13.71;54.99;100560.19;5006072;28;20041;-41
2022/08/05 00:19:21;;;;;;;3.08;1.05;;;;;;;13.69;54.97;100556.72;5005234;28;20050;-40
2022/08/05 00:21:50;;;;;;;3.78;1.38;;;;;;;13.67;54.93;100558.44;5005244;28;20618;-41
2022/08/05 00:24:19;;;;;;;3.90;1.13;;;;;;;13.66;54.66;100556.72;5008908;28;20038;-41
2022/08/05 00:26:57;;;;;;;3.38;1.48;;;;;;;13.63;55.28;100557.63;5009354;28;20041;-40
2022/08/05 00:29:24;;;;;;;6.70;1.55;;;;;;;13.60;55.67;100558.50;5003986;28;20054;-40
2022/08/05 00:31:54;;;;;;;4.15;1.30;;;;;;;13.59;55.44;100555.91;5003358;28;20046;-42
2022/08/05 00:34:41;;;;;;;3.90;1.33;;;;;;;13.57;55.52;100558.53;5005184;28;20044;-41
2022/08/05 00:37:28;;;;;;;3.13;1.65;;;;;;;13.56;54.84;100556.81;5005103;28;20149;-41
2022/08/05 00:40:14;;;;;;;2.63;1.10;;;;;;;13.52;55.99;100555.09;4997460;28;20120;-41
2022/08/05 00:42:52;;;;;;;5.97;2.25;;;;;;;13.50;56.21;100554.22;5008114;28;20161;-41
2022/08/05 00:45:19;;;;;;;4.25;1.70;;;;;;;13.50;55.93;100556.84;5007657;28;20674;-39
2022/08/05 00:48:07;;;;;;;3.13;1.35;;;;;;;13.50;56.32;100546.44;5009911;28;20069;-38
2022/08/05 00:50:35;;;;;;;2.33;1.75;;;;;;;13.50;55.31;100556.84;5008409;28;20050;-38
2022/08/05 00:53:02;;;;;;;2.97;1.63;;;;;;;13.50;56.59;100556.84;5002368;28;20522;-38
2022/08/05 00:55:50;;;;;;;3.00;1.38;;;;;;;13.49;57.19;100544.72;5007134;28;20100;-38
2022/08/05 00:58:17;;;;;;;3.03;1.35;;;;;;;13.50;56.53;100546.44;5005826;28;20657;-42
2022/08/05 01:00:45;;;;;;;5.07;1.48;;;;;;;13.50;57.03;100546.44;5005715;28;20046;-42
2022/08/05 01:03:12;;;;;;;2.78;1.42;;;;;;;13.51;56.20;100549.91;5006229;28;20038;-42
2022/08/05 01:05:49;;;;;;;;;;;;;;;13.32;57.55;100553.47;5005340;28;20379;-41
2022/08/05 01:08:17;;;;;;;2.05;1.20;;;;;;;13.46;56.89;100545.56;5002874;28;20360;-40
2022/08/05 01:11:11;;;;;;;6.90;2.17;;;;;;;13.48;56.63;100540.34;4995700;28;20070;-40
2022/08/05 01:16:28;;;;;;;6.80;1.00;;;;;;;13.47;57.53;100530.78;5058863;27;20390;-39
2022/08/05 01:19:03;;;;;;;3.55;1.05;;;;;;;13.48;56.46;100543.84;5006437;28;20050;-39
2022/08/05 01:24:49;;;;;;;3.55;2.38;;;;;;;13.39;56.72;100553.41;5027677;27;20722;-39
2022/08/05 01:32:32;;;;;;;2.83;1.10;;;;;;;13.38;57.28;100547.34;5040779;28;20394;-39
2022/08/05 01:35:05;;;;;;;3.50;1.10;;;;;;;13.39;57.18;100558.59;5022666;28;20104;-40
2022/08/05 01:37:44;;;;;;;2.00;1.08;;;;;;;13.34;57.93;100550.84;5026744;28;20052;-39
2022/08/05 01:40:13;;;;;;;3.47;1.50;;;;;;;13.33;57.62;100552.59;5023462;28;20108;-39
2022/08/05 01:42:45;;;;;;;3.50;1.27;;;;;;;13.32;56.99;100563.88;5026203;28;20054;-39
2022/08/05 01:45:15;;;;;;;7.07;1.42;;;;;;;13.32;58.13;100553.47;5023474;28;20657;-39
2022/08/05 01:47:45;;;;;;;4.15;1.40;;;;;;;13.31;57.90;100550.88;5026439;28;20049;-39
2022/08/05 01:50:20;;;;;;;2.22;1.23;;;;;;;13.28;58.44;100554.34;5024401;28;20058;-39
2022/08/05 01:52:59;;;;;;;9.68;1.50;;;;;;;13.28;58.53;100556.97;5024853;28;20132;-39
2022/08/05 01:55:29;;;;;;;3.13;1.13;;;;;;;13.26;58.08;100566.50;5031394;28;20049;-38
2022/08/05 01:58:04;;;;;;;3.97;1.30;;;;;;;13.23;57.94;100567.38;5044838;28;20111;-39
2022/08/05 02:00:52;;;;;;;3.70;1.40;;;;;;;13.19;58.39;100564.78;5023305;28;20073;-39
2022/08/05 02:03:23;;;;;;;3.95;1.42;;;;;;;13.18;57.92;100565.66;5026531;28;20054;-39
2022/08/05 02:06:01;;;;;;;6.90;1.45;;;;;;;13.14;58.52;100575.22;5025588;28;20054;-39
2022/08/05 02:08:48;;;;;;;4.10;1.40;;;;;;;13.10;57.96;100568.28;5024097;28;20084;-39
2022/08/05 02:11:24;;;;;;;4.45;1.45;;;;;;;13.09;58.91;100574.38;5022416;28;20490;-38
2022/08/05 02:14:04;;;;;;;6.65;1.40;;;;;;;13.07;58.74;100563.13;5024484;28;20120;-39
2022/08/05 02:16:40;;;;;;;2.97;1.40;;;;;;;13.06;58.38;100563.97;5020765;28;20046;-40
2022/08/05 02:19:24;;;;;;;4.25;1.48;;;;;;;13.01;58.64;100569.22;5024069;28;20050;-39
2022/08/05 02:22:01;;;;;;;3.78;1.50;;;;;;;13.00;58.34;100567.47;5024396;28;20728;-39
2022/08/05 02:24:36;;;;;;;2.47;1.40;;;;;;;12.98;58.93;100564.03;5022730;28;20556;-40
2022/08/05 02:27:07;;;;;;;3.08;1.20;;;;;;;12.99;59.00;100565.75;5022060;28;20048;-40
2022/08/05 02:29:39;;;;;;;8.65;1.70;;;;;;;12.95;59.12;100567.53;5025678;28;20673;-39
2022/08/05 02:32:29;;;;;;;4.15;1.45;;;;;;;12.90;57.84;100560.59;5025768;28;20053;-39
2022/08/05 02:35:00;;;;;;;3.70;1.63;;;;;;;12.85;58.83;100568.41;5025726;28;20050;-39
2022/08/05 02:37:42;;;;;;;3.53;1.75;;;;;;;12.79;58.39;100564.09;5025739;28;20660;-39
2022/08/05 02:40:15;;;;;;;4.07;1.83;;;;;;;12.78;58.23;100570.19;5024347;28;20419;-40
2022/08/05 02:42:44;;;;;;;2.88;1.67;;;;;;;12.73;58.66;100559.78;5018800;28;20050;-38
2022/08/05 02:45:21;;;;;;;2.78;1.67;;;;;;;12.70;59.14;100570.19;5009721;28;20494;-39
2022/08/05 02:47:51;;;;;;;5.82;1.85;;;;;;;12.65;59.72;100569.34;5012413;28;20050;-39
2022/08/05 02:50:41;;;;;;;5.72;1.95;;;;;;;12.60;59.17;100568.50;5011179;28;20402;-39
2022/08/05 02:53:11;;;;;;;5.55;1.60;;;;;;;12.56;59.29;100566.75;5008827;28;20053;-39
2022/08/05 02:55:47;;;;;;;6.40;2.83;;;;;;;12.53;59.64;100556.41;5008388;28;20540;-38
2022/08/05 02:58:25;;;;;;;4.60;1.55;;;;;;;12.49;59.16;100571.13;5009521;28;20115;-39
2022/08/05 03:00:57;;;;;;;4.97;2.90;;;;;;;12.47;59.65;100562.47;5006225;28;20438;-39
2022/08/05 03:03:26;;;;;;;6.32;1.88;;;;;;;12.45;59.76;100569.41;5007087;28;20081;-39
2022/08/05 03:06:01;;;;;;;8.88;1.60;;;;;;;12.44;60.39;100570.28;5007838;28;20054;-39
2022/08/05 03:08:49;;;;;;;7.68;1.80;;;;;;;12.43;59.26;100579.78;5007749;28;20549;-39
2022/08/05 03:16:30;;;;;;;8.45;3.28;;;;;;;12.46;59.54;100565.91;5054745;28;20399;-39
2022/08/05 03:18:58;;;;;;;6.78;2.90;;;;;;;12.46;60.08;100577.19;5018084;28;20049;-39
2022/08/05 03:21:25;;;;;;;5.70;2.72;;;;;;;12.47;61.05;100563.31;5013105;28;20070;-39
2022/08/05 03:23:54;;;;;;;7.00;2.90;;;;;;;12.49;61.14;100565.91;5019287;28;20057;-39
2022/08/05 03:26:22;;;;;;;6.78;3.35;;;;;;;12.49;60.74;100571.13;5023382;28;20050;-39
2022/08/05 03:28:58;;;;;;;4.55;3.22;;;;;;;12.50;60.94;100578.03;5018604;28;20132;-39
2022/08/05 03:31:26;;;;;;;3.70;1.95;;;;;;;12.52;60.80;100576.31;5020057;28;20406;-39
2022/08/05 03:34:12;;;;;;;6.03;5.43;;;;;;;12.51;61.07;100579.78;5014340;28;20144;-39
2022/08/05 03:36:39;;;;;;;5.95;3.85;;;;;;;12.52;60.95;100576.31;5018581;28;20054;-39
2022/08/05 03:39:07;;;;;;;5.53;3.25;;;;;;;12.52;61.14;100584.09;5020951;28;20101;-39
2022/08/05 03:41:38;;;;;;;8.75;3.58;;;;;;;12.51;61.29;100579.78;5018971;28;20127;-39
2022/08/05 03:44:12;;;;;;;4.63;3.13;;;;;;;12.49;61.48;100586.72;5024332;28;20052;-40
2022/08/05 03:46:45;;;;;;;7.65;3.67;;;;;;;12.48;60.92;100590.19;5019238;28;20386;-39
2022/08/05 03:49:12;;;;;;;4.97;3.45;;;;;;;12.49;60.96;100591.91;5020522;28;20045;-39
2022/08/05 03:52:01;;;;;;;7.55;3.50;;;;;;;12.44;61.22;100594.53;5013723;28;20517;-38
2022/08/05 03:54:55;;;;;;;5.78;2.92;;;;;;;12.51;61.86;100594.50;5015767;28;20494;-38
2022/08/05 03:57:44;;;;;;;7.63;2.25;;;;;;;12.55;61.67;100593.63;5020460;28;20447;-39
2022/08/05 04:00:14;;;;;;;6.00;3.50;;;;;;;12.58;61.97;100596.22;5016445;28;20078;-40
2022/08/05 04:02:47;;;;;;;7.38;3.25;;;;;;;12.60;61.48;100597.94;5021721;28;20557;-38
2022/08/05 04:05:29;;;;;;;6.65;3.50;;;;;;;12.63;61.75;100591.88;5014774;28;20136;-39
2022/08/05 04:08:02;;;;;;;4.65;3.15;;;;;;;12.67;61.46;100600.53;5014557;28;20042;-39
2022/08/05 04:10:33;;;;;;;6.60;3.60;;;;;;;12.69;62.29;100598.78;5018439;28;20050;-38
2022/08/05 04:13:06;;;;;;;6.65;3.45;;;;;;;12.68;62.37;100603.13;5023369;28;20045;-39
2022/08/05 04:15:33;;;;;;;6.38;2.83;;;;;;;12.69;61.64;100610.06;5018503;28;20099;-39
2022/08/05 04:18:04;;;;;;;8.80;3.67;;;;;;;12.66;62.25;100612.66;5016612;28;20061;-39
2022/08/05 04:20:32;;;;;;;6.63;3.30;;;;;;;12.65;62.00;100613.53;5016413;28;20053;-38
2022/08/05 04:22:59;;;;;;;6.47;3.13;;;;;;;12.65;62.29;100623.94;5019401;28;20050;-38
2022/08/05 04:25:26;;;;;;;6.18;3.67;;;;;;;12.65;62.01;100628.25;5019734;28;20042;-40
2022/08/05 04:28:13;;;;;;;7.25;3.03;;;;;;;12.62;61.84;100623.06;5006919;28;20085;-39
2022/08/05 04:30:40;;;;;;;8.80;3.85;;;;;;;12.62;62.90;100628.25;5006971;28;20057;-38
2022/08/05 04:33:08;;;;;;;8.43;2.90;;;;;;;12.64;61.49;100626.53;5008279;28;20053;-38
2022/08/05 04:35:35;;;;;;;5.43;3.30;;;;;;;12.66;62.36;100624.81;5008146;28;20050;-38
2022/08/05 04:38:22;;;;;;;7.50;3.40;;;;;;;12.66;62.35;100619.59;5006354;28;20050;-38
2022/08/05 04:41:06;;;;;;;8.52;3.58;;;;;;;12.69;62.41;100624.78;4997908;28;20061;-39
2022/08/05 04:43:35;;;;;;;8.25;2.05;;;;;;;12.69;61.85;100628.25;5007432;28;20457;-38
2022/08/05 04:46:03;;;;;;;5.13;3.25;;;;;;;12.72;61.94;100624.78;5010740;28;20555;-39
2022/08/05 04:48:31;;;;;;;4.75;3.05;;;;;;;12.75;61.93;100626.50;5000645;28;20045;-38
2022/08/05 04:50:57;;;;;;;9.75;3.70;;;;;;;12.76;62.83;100626.50;5007575;28;20037;-38
2022/08/05 04:53:35;;;;;;;5.88;3.25;;;;;;;12.79;62.47;100628.22;5003378;28;20053;-39
2022/08/05 04:56:06;;;;;;;6.10;2.53;;;;;;;12.82;62.81;100636.88;4997248;28;20050;-39
2022/08/05 04:58:53;;;;;;;7.00;3.10;;;;;;;12.86;62.82;100637.72;5004794;28;20069;-39
2022/08/05 05:01:20;;;;;;;6.03;2.88;;;;;;;12.91;62.32;100635.13;5001578;28;20058;-38
2022/08/05 05:04:06;;;;;;;4.88;3.15;;;;;;;12.94;62.56;100645.53;5004764;28;20100;-39
2022/08/05 05:06:34;;;;;;;5.97;2.83;;;;;;;12.98;63.00;100642.88;5005171;28;20108;-38
2022/08/05 05:09:11;;;;;;;9.55;3.13;;;;;;;13.03;62.67;100635.09;5002747;28;20045;-39
2022/08/05 05:11:43;;;;;;;6.65;2.88;;;;;;;13.05;62.65;100638.56;5005312;28;20076;-38
2022/08/05 05:14:21;;;;;;;5.68;3.20;;;;;;;13.09;62.23;100640.28;5008685;28;20049;-39
2022/08/05 05:16:57;;;;;;;7.07;2.85;;;;;;;13.13;62.85;100645.47;4997353;28;20048;-40
2022/08/05 05:19:24;;;;;;;8.70;3.10;;;;;;;13.18;62.45;100654.09;5001638;28;20082;-39
2022/08/05 05:22:02;;;;;;;3.67;2.50;;;;;;;13.22;62.81;100655.81;4997241;28;20108;-38
2022/08/05 05:24:48;;;;;;;7.25;3.50;;;;;;;13.23;62.41;100645.41;5006873;28;20694;-39
2022/08/05 05:27:26;;;;;;;5.90;3.10;;;;;;;13.28;62.83;100645.41;5009950;28;20064;-39
2022/08/05 05:30:14;;;;;;;4.88;2.45;;;;;;;13.34;62.09;100653.16;5003115;28;20127;-39
2022/08/05 05:32:58;;;;;;;4.40;2.90;;;;;;;13.37;62.42;100660.97;4994078;28;20050;-38
2022/08/05 05:35:27;;;;;;;5.45;3.15;;;;;;;13.40;62.28;100675.69;5000649;28;20046;-38
2022/08/05 05:38:03;;;;;;;;;;;;;;;13.30;63.21;100669.66;5007105;28;20085;-39
2022/08/05 05:40:31;;;;;;;5.65;2.22;;;;;;;13.46;62.01;100680.00;5008277;28;19929;-39
2022/08/05 05:43:00;;;;;;;4.35;2.50;;;;;;;13.54;62.27;100683.47;5004203;28;20396;-39
2022/08/05 05:45:28;;;;;;;4.70;2.88;;;;;;;13.58;62.88;100679.13;4995394;28;20038;-40
2022/08/05 05:47:57;;;;;;;7.43;2.65;;;;;;;13.61;62.07;100674.75;5003512;28;20045;-39
2022/08/05 05:50:34;;;;;;;7.72;1.20;;;;;;;13.66;62.46;100681.66;5005807;28;20270;-39
2022/08/05 05:53:10;;;;;;;6.50;2.72;;;;;;;13.69;63.17;100684.25;4996474;28;20046;-39
2022/08/05 05:55:48;;;;;;;7.22;2.60;;;;;;;13.74;62.93;100690.28;5003227;28;20128;-39
2022/08/05 05:58:27;;;;;;;7.72;2.88;;;;;;;13.84;62.74;100691.97;4995489;28;20054;-39
2022/08/05 06:00:58;;;;;;;6.13;3.13;;;;;;;13.96;63.28;100701.47;5006175;28;20523;-40
2022/08/05 06:03:39;;;;;;;7.50;3.80;;;;;;;14.14;63.01;100703.09;5007127;28;20050;-39
2022/08/05 06:06:26;;;;;;;9.88;2.97;;;;;;;14.36;62.34;100710.72;5002435;28;20136;-39
2022/08/05 06:08:58;;;;;;;4.05;2.80;;;;;;;14.45;62.47;100708.94;5001423;28;20128;-39
2022/08/05 06:11:24;;;;;;;7.25;2.50;;;;;;;14.45;61.64;100714.16;5007497;28;20077;-40
2022/08/05 06:13:54;;;;;;;6.03;2.38;;;;;;;14.41;62.09;100715.91;4998551;28;20049;-40
2022/08/05 06:16:21;;;;;;;5.32;2.80;;;;;;;14.39;62.16;100715.06;4996886;28;20140;-39
2022/08/05 06:18:58;;;;;;;2.97;1.30;;;;;;;14.36;61.45;100721.13;5006744;28;20442;-39
2022/08/05 06:21:31;;;;;;;4.65;2.10;;;;;;;14.35;62.33;100719.41;5001002;28;20153;-39
2022/08/05 06:24:06;;;;;;;4.70;1.30;;;;;;;14.36;62.34;100715.94;5004016;28;20441;-39
2022/08/05 06:26:39;;;;;;;3.72;2.40;;;;;;;14.35;62.27;100719.41;5004597;28;20096;-39
2022/08/05 06:29:19;;;;;;;4.80;2.05;;;;;;;14.38;62.00;100719.41;5001504;28;20042;-38
2022/08/05 06:32:07;;;;;;;4.10;2.28;;;;;;;14.51;62.19;100719.31;5002781;28;20100;-39
2022/08/05 06:34:47;;;;;;;5.90;2.47;;;;;;;14.84;62.08;100725.13;5008394;28;20050;-38
2022/08/05 06:37:19;;;;;;;5.22;2.25;;;;;;;15.18;61.93;100728.25;5000170;28;20053;-39
2022/08/05 06:40:06;;;;;;;4.70;2.17;;;;;;;15.60;62.00;100733.84;5004407;28;20081;-39
2022/08/05 06:42:32;;;;;;;3.33;3.03;;;;;;;15.95;61.63;100729.09;5006286;28;20584;-40
2022/08/05 06:44:59;;;;;;;7.38;2.92;;;;;;;16.26;61.27;100728.63;5002513;28;20070;-38
2022/08/05 06:47:31;;;;;;;4.18;2.13;;;;;;;16.55;59.98;100729.06;5001818;28;20058;-39
2022/08/05 06:50:17;;;;;;;3.40;2.35;;;;;;;16.79;60.31;100732.13;5001876;28;20073;-38
2022/08/05 06:52:44;;;;;;;4.03;1.02;;;;;;;17.04;59.44;100729.91;5001019;28;20418;-39
2022/08/05 06:55:31;;;;;;;4.32;2.28;;;;;;;17.27;58.37;100731.28;5001762;28;20125;-39
2022/08/05 06:58:02;;;;;;;7.10;1.92;;;;;;;17.54;57.96;100725.50;5002277;28;20068;-39
2022/08/05 07:00:49;;;;;;;3.72;1.98;;;;;;;17.82;57.58;100737.97;5006605;28;20509;-39
2022/08/05 07:03:16;;;;;;;4.40;2.05;;;;;;;18.08;57.20;100744.41;5008531;28;20042;-39
2022/08/05 07:05:44;;;;;;;3.83;2.03;;;;;;;18.30;57.02;100741.31;5006212;28;20136;-39
2022/08/05 07:08:12;;;;;;;3.30;1.83;;;;;;;18.53;55.73;100747.75;5006450;28;20045;-39
2022/08/05 07:10:39;;;;;;;5.53;2.25;;;;;;;18.66;54.96;100741.31;5004409;28;20056;-39
2022/08/05 07:19:32;;;;;;;2.80;1.85;;;;;;;19.29;53.23;100753.69;5001525;28;20050;-39
2022/08/05 07:22:21;;;;;;;9.10;2.40;;;;;;;19.55;52.60;100759.09;5001863;28;20066;-42
2022/08/05 07:24:58;;;;;;;5.78;1.80;;;;;;;19.74;51.33;100759.41;4998228;28;20058;-39
2022/08/05 07:27:45;;;;;;;3.85;1.75;;;;;;;19.93;51.49;100761.50;5004081;28;20128;-40
2022/08/05 07:30:26;;;;;;;2.53;1.65;;;;;;;20.07;50.81;100761.97;4978870;28;20061;-40
2022/08/05 07:32:59;;;;;;;3.38;2.78;;;;;;;20.24;50.62;100763.19;4993027;28;20129;-39
2022/08/05 07:35:25;;;;;;;3.22;1.60;;;;;;;20.44;50.41;100762.56;5002810;28;20057;-41
2022/08/05 07:38:13;;;;;;;7.15;1.92;;;;;;;20.66;49.92;100769.72;5004609;28;20152;-42
2022/08/05 07:41:01;;;;;;;3.70;2.13;;;;;;;20.88;49.35;100761.09;4996799;28;20310;-39
2022/08/05 07:43:48;;;;;;;5.03;1.88;;;;;;;21.16;48.76;100768.94;5002981;28;20430;-41
2022/08/05 07:46:15;;;;;;;3.60;0.80;;;;;;;21.27;47.53;100763.25;5002399;28;20589;-41
2022/08/05 07:48:55;;;;;;;2.63;0.70;;;;;;;21.28;47.50;100764.97;5002310;28;20359;-42
2022/08/05 07:51:32;;;;;;;4.28;2.15;;;;;;;21.28;47.36;100764.97;5003166;28;20386;-40
2022/08/05 07:54:07;;;;;;;6.53;2.83;;;;;;;21.20;46.69;100780.19;5002305;28;20072;-42
2022/08/05 07:56:37;;;;;;;2.38;2.17;;;;;;;21.15;47.05;100782.16;5003762;28;20042;-42
2022/08/05 07:59:23;;;;;;;3.97;1.85;;;;;;;21.36;47.44;100780.50;5002432;28;21509;-40
2022/08/05 08:02:07;;;;;;;2.53;2.33;;;;;;;21.64;46.85;100774.22;5001909;28;20116;-41
2022/08/05 08:04:43;;;;;;;2.63;1.88;;;;;;;21.63;46.71;100776.91;5001912;28;20050;-41
2022/08/05 08:07:11;;;;;;;3.60;1.65;;;;;;;21.35;46.23;100789.34;5006369;28;20042;-39
2022/08/05 08:09:38;;;;;;;4.03;1.65;;;;;;;21.40;47.45;100783.88;5002147;28;20093;-41
2022/08/05 08:12:05;;;;;;;2.20;1.70;;;;;;;21.71;47.15;100795.91;5005438;28;20057;-40
2022/08/05 08:14:51;;;;;;;4.35;1.95;;;;;;;22.00;45.73;100778.16;4997483;28;20054;-41
2022/08/05 08:17:18;;;;;;;4.03;2.38;;;;;;;22.40;45.59;100782.75;5006734;28;20050;-39
2022/08/05 08:19:47;;;;;;;3.13;2.33;;;;;;;22.64;45.19;100785.34;5007170;28;20085;-42
2022/08/05 08:22:34;;;;;;;4.45;1.92;;;;;;;22.42;44.35;100786.19;5001752;28;20706;-42
2022/08/05 08:25:00;;;;;;;3.92;1.73;;;;;;;22.47;44.65;100784.25;5004748;28;20050;-42
2022/08/05 08:27:30;;;;;;;2.97;1.77;;;;;;;22.78;45.21;100785.63;5007540;28;20041;-41
2022/08/05 08:30:14;;;;;;;4.47;2.03;;;;;;;23.21;44.33;100789.97;5007067;28;20050;-42
2022/08/05 08:33:00;;;;;;;3.70;2.05;;;;;;;22.97;43.11;100792.78;5002907;28;20069;-42
2022/08/05 08:35:33;;;;;;;1.13;0.52;;;;;;;22.85;43.28;100789.72;5000625;28;20473;-43
2022/08/05 08:38:17;;;;;;;2.50;1.58;;;;;;;22.65;43.91;100792.34;4998871;28;20057;-40
2022/08/05 08:41:06;;;;;;;2.75;2.28;;;;;;;22.32;43.66;100791.84;5001835;28;20051;-41
2022/08/05 08:43:35;;;;;;;1.98;1.67;;;;;;;22.20;43.86;100784.44;5005138;28;20512;-40
2022/08/05 08:46:24;;;;;;;8.50;2.17;;;;;;;22.06;43.81;100796.38;5000862;28;20244;-40
2022/08/05 08:48:52;;;;;;;;;;;;;;;22.24;43.91;100793.06;5004014;28;20045;-42
2022/08/05 08:51:41;;;;;;;2.00;0.40;;;;;;;22.37;42.61;100793.44;5004823;28;20350;-41
2022/08/05 08:54:29;;;;;;;2.67;2.15;;;;;;;22.47;43.22;100790.34;5003337;28;20088;-41
2022/08/05 08:56:58;;;;;;;3.35;0.50;;;;;;;22.81;42.93;100787.28;4999782;28;20406;-46
2022/08/05 08:59:25;;;;;;;2.88;1.90;;;;;;;23.17;41.41;100798.97;5007312;28;20050;-41
2022/08/05 09:01:53;;;;;;;2.40;2.20;;;;;;;23.43;40.57;100799.59;5005672;28;20045;-42
2022/08/05 09:04:23;;;;;;;1.85;1.35;;;;;;;23.59;39.94;100803.28;5005940;28;20077;-41
2022/08/05 09:06:56;;;;;;;2.47;1.70;;;;;;;23.78;41.14;100799.81;5001148;28;20042;-41
2022/08/05 09:09:24;;;;;;;3.47;2.55;;;;;;;23.95;39.56;100795.50;5003761;28;20128;-42
2022/08/05 09:11:51;;;;;;;6.32;2.13;;;;;;;23.64;39.51;100808.34;5004425;28;20105;-41
2022/08/05 09:14:31;;;;;;;3.97;1.40;;;;;;;23.44;39.57;100806.63;5007029;28;20049;-40
2022/08/05 09:17:18;;;;;;;3.20;1.52;;;;;;;23.60;40.37;100807.63;5002479;28;20045;-40
2022/08/05 09:20:05;;;;;;;3.13;1.70;;;;;;;23.44;40.13;100806.63;5004473;28;20080;-41
2022/08/05 09:22:53;;;;;;;;;;;;;;;23.03;40.33;100808.34;4995687;28;20129;-42
2022/08/05 09:25:31;;;;;;;2.90;2.17;;;;;;;22.96;40.48;100806.88;4997597;28;19926;-43
2022/08/05 09:28:23;;;;;;;2.05;1.75;;;;;;;23.29;41.42;100803.69;5005712;28;20074;-46
2022/08/05 09:31:03;;;;;;;3.00;1.98;;;;;;;23.55;40.22;100804.34;4997956;28;20406;-42
2022/08/05 09:36:48;;;;;;;2.35;0.70;;;;;;;23.31;40.18;100801.88;5109907;27;20395;-42
2022/08/05 09:39:25;;;;;;;1.98;0.40;;;;;;;23.35;39.78;100803.47;5062458;28;20080;-43
2022/08/05 09:42:11;;;;;;;3.70;0.68;;;;;;;23.30;40.20;100800.13;5052338;28;20041;-42
2022/08/05 09:44:54;;;;;;;1.10;0.32;;;;;;;23.12;40.25;100801.81;5069834;28;20048;-42
2022/08/05 09:47:26;;;;;;;1.25;1.00;;;;;;;23.35;40.19;100803.47;5060602;28;20115;-40
2022/08/05 09:50:12;;;;;;;2.28;0.77;;;;;;;23.64;39.69;100794.28;5070148;28;20480;-42
2022/08/05 09:52:59;;;;;;;2.95;0.57;;;;;;;23.72;39.26;100810.66;5052613;28;20130;-44
2022/08/05 09:55:26;;;;;;;5.28;1.00;;;;;;;23.43;38.33;100805.75;5057555;28;20469;-42
2022/08/05 09:58:14;;;;;;;1.38;0.70;;;;;;;23.31;39.63;100804.50;5060312;28;20133;-41
2022/08/05 10:01:01;;;;;;;1.98;0.50;;;;;;;23.49;39.50;100805.50;5063796;28;20052;-42
2022/08/05 10:03:54;;;;;;;1.10;0.52;;;;;;;23.86;38.80;100808.22;5057133;28;20072;-40
2022/08/05 10:06:26;;;;;;;1.38;0.38;;;;;;;24.00;38.45;100804.06;5056981;28;20048;-40
2022/08/05 10:08:54;;;;;;;2.55;0.52;;;;;;;24.08;38.49;100801.91;5079491;28;20052;-40
2022/08/05 10:11:22;;;;;;;2.30;1.00;;;;;;;24.32;38.50;100804.31;5074159;28;20448;-42
2022/08/05 10:13:50;;;;;;;1.75;0.60;;;;;;;24.56;38.54;100795.25;5058839;28;20045;-40
2022/08/05 10:16:35;;;;;;;3.97;0.70;;;;;;;24.79;37.56;100804.72;5056929;28;20055;-40
2022/08/05 10:19:19;;;;;;;2.63;0.73;;;;;;;24.98;37.55;100809.94;5040691;28;20382;-42
2022/08/05 10:21:57;;;;;;;3.70;0.60;;;;;;;25.05;37.56;100807.81;5034015;28;20084;-43
2022/08/05 10:24:25;;;;;;;1.95;0.77;;;;;;;25.10;36.74;100818.19;5072787;28;20176;-41
2022/08/05 10:26:55;;;;;;;2.80;0.60;;;;;;;25.02;36.39;100813.28;5044839;28;20500;-41
2022/08/05 10:29:28;;;;;;;5.15;0.52;;;;;;;24.81;36.85;100821.38;5037835;28;20049;-43
2022/08/05 10:32:15;;;;;;;;;;;;;;;24.21;36.17;100822.53;5038858;28;20049;-42
2022/08/05 10:35:02;;;;;;;5.03;1.02;;;;;;;23.99;37.25;100823.53;5036068;28;20010;-41
2022/08/05 10:37:30;;;;;;;2.70;0.40;;;;;;;23.92;37.58;100830.03;5042812;28;20054;-41
2022/08/05 10:43:36;;;;;;;5.38;1.15;;;;;;;23.93;36.84;100829.97;5065300;28;20379;-45
2022/08/05 10:46:07;;;;;;;2.03;0.40;;;;;;;23.83;36.97;100837.47;5020704;28;20052;-42
2022/08/05 10:51:21;;;;;;;2.78;0.60;;;;;;;23.67;37.58;100839.94;5027291;27;20409;-42
2022/08/05 10:53:57;;;;;;;2.03;0.63;;;;;;;23.50;37.56;100838.06;5023316;28;20492;-42
2022/08/05 10:56:30;;;;;;;1.17;0.50;;;;;;;23.28;38.15;100844.28;5024290;28;20493;-41
2022/08/05 11:01:36;;;;;;;2.53;0.77;;;;;;;22.93;39.11;100849.28;5056287;27;20383;-44
2022/08/05 11:04:26;;;;;;;1.63;0.30;;;;;;;22.80;39.37;100857.69;5024360;28;20103;-42
2022/08/05 11:09:51;;;;;;;4.90;1.58;;;;;;;22.76;39.04;100861.41;5046907;27;20397;-43
2022/08/05 11:17:53;;;;;;;2.05;0.68;;;;;;;23.54;39.25;100866.06;5029368;27;20894;-44
2022/08/05 11:20:37;;;;;;;1.83;1.20;;;;;;;23.92;38.85;100862.63;5018354;28;20042;-41
2022/08/05 11:26:09;;;;;;;1.90;0.60;;;;;;;23.95;37.28;100869.56;5063591;27;20397;-43
2022/08/05 11:28:42;;;;;;;1.08;0.55;;;;;;;23.90;37.57;100860.97;5043193;28;20053;-43
2022/08/05 11:39:17;;;;;;;1.90;0.77;;;;;;;24.31;37.28;100866.16;5019683;27;20413;-42
2022/08/05 11:41:50;;;;;;;4.00;1.23;;;;;;;24.38;37.15;100862.28;5016731;28;20052;-40
2022/08/05 11:44:35;;;;;;;2.40;1.65;;;;;;;24.53;37.09;100870.41;5013905;28;20069;-41
2022/08/05 11:47:22;;;;;;;2.15;0.65;;;;;;;24.46;36.60;100861.06;5017149;28;20397;-42
2022/08/05 11:50:08;;;;;;;2.33;1.52;;;;;;;24.25;36.39;100866.47;5020570;28;20065;-45
2022/08/05 11:52:40;;;;;;;3.92;1.90;;;;;;;24.11;36.49;100873.25;5017983;28;20057;-46
2022/08/05 11:55:10;;;;;;;4.65;1.98;;;;;;;23.92;37.08;100864.41;5022720;28;20077;-46
2022/08/05 11:57:44;;;;;;;1.67;1.20;;;;;;;23.85;37.41;100877.91;5020227;28;20046;-41
2022/08/05 12:00:31;;;;;;;1.75;0.70;;;;;;;23.98;38.21;100872.91;5013746;28;20465;-43
2022/08/05 12:03:20;;;;;;;1.85;0.60;;;;;;;24.07;37.59;100866.34;5017290;28;20611;-43
2022/08/05 12:06:01;;;;;;;2.47;2.03;;;;;;;24.22;37.50;100871.88;5015637;28;20184;-43
2022/08/05 12:08:28;;;;;;;2.75;1.25;;;;;;;24.30;37.01;100858.28;5015643;28;20042;-42
2022/08/05 12:11:02;;;;;;;1.77;1.35;;;;;;;24.37;37.11;100862.34;5023559;28;20129;-42
2022/08/05 12:13:31;;;;;;;2.22;1.27;;;;;;;24.43;36.23;100862.06;5016103;28;20117;-41
2022/08/05 12:16:17;;;;;;;1.17;1.08;;;;;;;24.47;36.33;100857.47;5024962;28;20561;-43
2022/08/05 12:18:44;;;;;;;2.53;1.75;;;;;;;24.52;36.33;100858.13;5022011;28;20046;-42
2022/08/05 12:21:23;;;;;;;2.63;1.30;;;;;;;24.62;35.96;100864.66;5018134;28;20060;-40
2022/08/05 12:26:32;;;;;;;3.30;0.40;;;;;;;24.61;35.81;100856.78;5035267;27;20398;-42
2022/08/05 12:28:58;;;;;;;;;;;;;;;24.38;35.66;100856.97;5015679;28;20061;-42
2022/08/05 12:31:29;;;;;;;1.02;0.30;;;;;;;24.48;35.26;100867.13;5016894;28;19994;-41
2022/08/05 12:34:10;;;;;;;2.17;0.40;;;;;;;24.55;35.53;100865.88;5018392;28;20137;-41
2022/08/05 12:36:48;;;;;;;2.33;0.50;;;;;;;24.53;34.85;100867.78;5023541;28;20046;-42
2022/08/05 12:39:16;;;;;;;3.03;0.45;;;;;;;24.51;35.36;100866.97;5015412;28;20116;-41
2022/08/05 12:41:44;;;;;;;0.50;0.30;;;;;;;24.39;34.29;100869.28;5019484;28;20995;-41
2022/08/05 12:44:13;;;;;;;3.47;0.73;;;;;;;24.35;34.22;100872.16;5020794;28;20053;-40
2022/08/05 12:46:58;;;;;;;1.13;0.75;;;;;;;24.26;34.81;100868.16;5018645;28;20044;-41
2022/08/05 12:49:48;;;;;;;3.15;0.40;;;;;;;24.21;34.83;100878.13;5019459;28;20100;-40
2022/08/05 12:52:33;;;;;;;2.05;0.28;;;;;;;24.17;34.39;100874.75;5016661;28;20053;-41
2022/08/05 12:57:54;;;;;;;0.90;0.25;;;;;;;24.26;35.03;100868.16;5062865;28;20391;-42
2022/08/05 13:00:43;;;;;;;1.98;0.50;;;;;;;24.38;34.64;100867.56;5024690;28;20081;-41
2022/08/05 13:03:30;;;;;;;2.58;0.63;;;;;;;24.42;35.27;100867.44;5038308;28;20077;-42
2022/08/05 13:05:59;;;;;;;2.50;0.80;;;;;;;24.42;35.40;100875.38;5043843;28;20060;-41